Airfield :







YOU CAN JOIN US ON...

 
LOGIN :

Register | Disclaimer

   EN    FR    IT 

 









Legend :    VFR   Marginal VFR   IFR   Intensive IFR   Very Intensive IFR
Visi :
Ceiling :
>= 8 km
>= 3000ft
5 to 8 km
1000 to 3000 ft
1500m to 5 km
500 to 1000 ft
800 to 1500m
200 to 500 ft
< 800m
< 200 ft
Symbols :   Thunderstorms  Fog  Heavy snow  Heavy precipitations  Wind > 20 kt






- Airport Elevation : 1709 ft
- IATA code : YKL


CYKL - Schefferville

CURRENT METAR :
  • 251824Z AUTO 26007KT 210V300 9SM BKN021 OVC027 13/08 A2974 RMK SLP089 DENSITY ALT 2000FT

EXPIRED METARs :
  • 251806Z AUTO 22010G16KT 190V260 9SM OVC027 13/08 A2974 RMK SLP087 DENSITY ALT 2000FT
  • 251751Z AUTO 23012G20KT 7SM OVC022 12/09 A2974 RMK SLP088 DENSITY ALT 1900FT
  • 251741Z AUTO 24012G17KT 5SM HZ OVC020 12/09 A2975 RMK SLP090 DENSITY ALT 1900FT
  • 251712Z AUTO 24014G20KT 200V260 9SM BKN022 OVC028 13/09 A2974 RMK SLP088 DENSITY ALT 2000FT
  • 251700Z AUTO 24013G23KT 9SM OVC030 13/09 A2974 RMK SLP089 DENSITY ALT 2000FT
  • 251600Z AUTO 24015G21KT 9SM BKN042 OVC055 12/09 A2974 RMK SLP088 DENSITY ALT 1900FT

TAF TAF CYKL
Valid from the 25 at 14:00 until the 26 at 02:00 UTC


251332Z 2514/2602 23012G22KT P6SM SCT090 BKN150
TEMPO 2514/2518 5SM -SHRA BR BKN020 OVC090
FM251800 23015G25KT 6SM -RA BR SCT010 BKN030
TEMPO 2518/2602 3SM -SHRA BR BKN010 OVC030 RMK FCST BASED ON AUTO OBS. NXT FCST BY 252000Z
CZUL FIR / North America



MET'MAP, your aeronautical weather chart ! - Copyright ORBIFLY December 2007 - Disclaimer

ORBIFLY MET'MAP TEAM :

Programming & Development : Alexandra Zaïnal
Concept & original design : Baudouin d'Aumeries
Assistance for programming : Marc-Olivier Méhu
Technical & hardware support : Manuel Goepfert

Contact : metmap@orbifly.com




SOURCES & CREDITS :

   NOAA